sensor_id;sensor_type;location;lat;lon;timestamp;pressure;altitude;pressure_sealevel;temperature;humidity
75298;BME280;63896;45.990;18.688;2023-02-01T00:00:15;101104.16;;;2.24;71.29
75298;BME280;63896;45.990;18.688;2023-02-01T00:03:18;101097.81;;;2.26;71.42
75298;BME280;63896;45.990;18.688;2023-02-01T00:06:21;101097.41;;;2.21;71.21
75298;BME280;63896;45.990;18.688;2023-02-01T00:09:24;101088.41;;;2.33;71.29
75298;BME280;63896;45.990;18.688;2023-02-01T00:12:27;101079.69;;;2.43;71.41
75298;BME280;63896;45.990;18.688;2023-02-01T00:15:30;101078.91;;;2.60;70.90
75298;BME280;63896;45.990;18.688;2023-02-01T00:18:33;101079.78;;;2.51;71.77
75298;BME280;63896;45.990;18.688;2023-02-01T00:21:36;101064.34;;;2.48;71.80
75298;BME280;63896;45.990;18.688;2023-02-01T00:24:39;101072.75;;;2.51;71.66
75298;BME280;63896;45.990;18.688;2023-02-01T00:27:42;101066.22;;;2.28;73.49
75298;BME280;63896;45.990;18.688;2023-02-01T00:30:45;101059.56;;;2.06;74.66
75298;BME280;63896;45.990;18.688;2023-02-01T00:33:48;101055.16;;;2.07;74.75
75298;BME280;63896;45.990;18.688;2023-02-01T00:36:51;101064.44;;;1.91;74.63
75298;BME280;63896;45.990;18.688;2023-02-01T00:39:54;101060.41;;;1.97;74.57
75298;BME280;63896;45.990;18.688;2023-02-01T00:42:58;101064.78;;;2.16;72.92
75298;BME280;63896;45.990;18.688;2023-02-01T00:46:01;101069.75;;;2.09;73.27
75298;BME280;63896;45.990;18.688;2023-02-01T00:49:04;101062.59;;;2.02;73.93
75298;BME280;63896;45.990;18.688;2023-02-01T00:52:08;101057.41;;;1.92;74.63
75298;BME280;63896;45.990;18.688;2023-02-01T00:55:11;101046.78;;;2.03;73.81
75298;BME280;63896;45.990;18.688;2023-02-01T00:58:14;101056.03;;;2.25;73.23
75298;BME280;63896;45.990;18.688;2023-02-01T01:01:20;101042.09;;;2.34;72.33
75298;BME280;63896;45.990;18.688;2023-02-01T01:04:24;101053.78;;;2.12;73.00
75298;BME280;63896;45.990;18.688;2023-02-01T01:07:27;101053.50;;;2.06;73.79
75298;BME280;63896;45.990;18.688;2023-02-01T01:10:30;101043.31;;;2.12;73.33
75298;BME280;63896;45.990;18.688;2023-02-01T01:13:35;101048.66;;;2.11;74.08
75298;BME280;63896;45.990;18.688;2023-02-01T01:16:38;101047.00;;;2.10;73.79
75298;BME280;63896;45.990;18.688;2023-02-01T01:19:41;101033.75;;;2.21;72.95
75298;BME280;63896;45.990;18.688;2023-02-01T01:22:44;101050.16;;;2.23;73.42
75298;BME280;63896;45.990;18.688;2023-02-01T01:25:47;101049.50;;;2.11;74.08
75298;BME280;63896;45.990;18.688;2023-02-01T01:28:50;101049.50;;;2.02;73.97
75298;BME280;63896;45.990;18.688;2023-02-01T01:31:53;101055.03;;;2.08;74.11
75298;BME280;63896;45.990;18.688;2023-02-01T01:34:56;101045.34;;;2.09;73.25
75298;BME280;63896;45.990;18.688;2023-02-01T01:38:00;101038.09;;;2.03;73.29
75298;BME280;63896;45.990;18.688;2023-02-01T01:41:03;101039.03;;;2.11;73.21
75298;BME280;63896;45.990;18.688;2023-02-01T01:47:54;101023.44;;;2.47;71.56
75298;BME280;63896;45.990;18.688;2023-02-01T01:51:04;101032.75;;;2.31;71.93
75298;BME280;63896;45.990;18.688;2023-02-01T01:54:21;101041.81;;;2.37;71.67
75298;BME280;63896;45.990;18.688;2023-02-01T01:57:32;101034.28;;;2.24;71.70
75298;BME280;63896;45.990;18.688;2023-02-01T02:00:38;101030.03;;;2.23;71.90
75298;BME280;63896;45.990;18.688;2023-02-01T02:03:45;101034.56;;;2.21;71.45
75298;BME280;63896;45.990;18.688;2023-02-01T02:06:55;101041.59;;;2.21;71.93
75298;BME280;63896;45.990;18.688;2023-02-01T02:10:00;101048.78;;;2.19;72.35
75298;BME280;63896;45.990;18.688;2023-02-01T02:13:04;101029.34;;;2.21;71.80
75298;BME280;63896;45.990;18.688;2023-02-01T02:36:17;101013.00;;;1.73;73.11
75298;BME280;63896;45.990;18.688;2023-02-01T02:39:55;101017.69;;;1.69;74.83
75298;BME280;63896;45.990;18.688;2023-02-01T02:43:22;101022.00;;;1.41;76.37
75298;BME280;63896;45.990;18.688;2023-02-01T02:46:47;101013.88;;;1.25;76.94
75298;BME280;63896;45.990;18.688;2023-02-01T02:53:43;101002.75;;;1.23;76.53
75298;BME280;63896;45.990;18.688;2023-02-01T02:57:20;100995.84;;;1.41;75.82
75298;BME280;63896;45.990;18.688;2023-02-01T03:00:44;100969.25;;;1.56;75.56
75298;BME280;63896;45.990;18.688;2023-02-01T03:04:06;100968.03;;;1.50;76.33
75298;BME280;63896;45.990;18.688;2023-02-01T03:11:08;100981.53;;;1.46;77.66
75298;BME280;63896;45.990;18.688;2023-02-01T03:14:13;100984.97;;;1.46;76.80
75298;BME280;63896;45.990;18.688;2023-02-01T03:17:22;100981.38;;;1.57;75.72
75298;BME280;63896;45.990;18.688;2023-02-01T03:20:29;100986.44;;;1.68;74.31
75298;BME280;63896;45.990;18.688;2023-02-01T03:23:35;100992.06;;;1.73;72.93
75298;BME280;63896;45.990;18.688;2023-02-01T03:26:45;100989.28;;;1.84;73.28
75298;BME280;63896;45.990;18.688;2023-02-01T03:30:03;100990.78;;;1.86;72.71
75298;BME280;63896;45.990;18.688;2023-02-01T03:33:12;100980.84;;;1.90;72.57
75298;BME280;63896;45.990;18.688;2023-02-01T03:36:30;100975.19;;;1.95;71.83
75298;BME280;63896;45.990;18.688;2023-02-01T03:39:38;100973.91;;;2.08;71.16
75298;BME280;63896;45.990;18.688;2023-02-01T03:42:50;100980.03;;;2.17;71.13
75298;BME280;63896;45.990;18.688;2023-02-01T03:46:02;100998.31;;;2.26;70.51
75298;BME280;63896;45.990;18.688;2023-02-01T03:49:09;100980.00;;;2.26;70.79
75298;BME280;63896;45.990;18.688;2023-02-01T03:52:18;100979.47;;;2.23;71.07
75298;BME280;63896;45.990;18.688;2023-02-01T03:55:25;100983.16;;;2.30;70.95
75298;BME280;63896;45.990;18.688;2023-02-01T03:58:29;100975.78;;;2.16;70.63
75298;BME280;63896;45.990;18.688;2023-02-01T04:01:32;100976.31;;;2.19;70.85
75298;BME280;63896;45.990;18.688;2023-02-01T04:04:36;100992.84;;;2.20;71.04
75298;BME280;63896;45.990;18.688;2023-02-01T04:07:39;100999.72;;;2.21;70.83
75298;BME280;63896;45.990;18.688;2023-02-01T04:10:42;100995.69;;;2.26;70.80
75298;BME280;63896;45.990;18.688;2023-02-01T04:13:46;100998.03;;;2.29;70.32
75298;BME280;63896;45.990;18.688;2023-02-01T04:16:49;100996.66;;;2.25;70.22
75298;BME280;63896;45.990;18.688;2023-02-01T04:19:52;101009.63;;;2.27;70.37
75298;BME280;63896;45.990;18.688;2023-02-01T04:22:57;101014.03;;;2.26;70.97
75298;BME280;63896;45.990;18.688;2023-02-01T04:26:01;101014.56;;;2.30;70.55
75298;BME280;63896;45.990;18.688;2023-02-01T04:29:04;101009.56;;;2.36;70.22
75298;BME280;63896;45.990;18.688;2023-02-01T04:32:07;101016.16;;;2.40;69.97
75298;BME280;63896;45.990;18.688;2023-02-01T04:35:10;101023.44;;;2.47;69.72
75298;BME280;63896;45.990;18.688;2023-02-01T04:38:14;101023.72;;;2.44;69.24
75298;BME280;63896;45.990;18.688;2023-02-01T04:41:17;101018.19;;;2.47;69.21
75298;BME280;63896;45.990;18.688;2023-02-01T04:44:21;101034.81;;;2.55;68.72
75298;BME280;63896;45.990;18.688;2023-02-01T04:47:28;101038.34;;;2.64;68.56
75298;BME280;63896;45.990;18.688;2023-02-01T04:50:31;101026.22;;;2.63;67.83
75298;BME280;63896;45.990;18.688;2023-02-01T04:53:34;101033.13;;;2.64;67.83
75298;BME280;63896;45.990;18.688;2023-02-01T04:56:37;101040.25;;;2.71;67.24
75298;BME280;63896;45.990;18.688;2023-02-01T04:59:40;101044.22;;;2.75;67.24
75298;BME280;63896;45.990;18.688;2023-02-01T05:02:43;101052.91;;;2.76;67.52
75298;BME280;63896;45.990;18.688;2023-02-01T05:05:49;101049.63;;;2.74;67.68
75298;BME280;63896;45.990;18.688;2023-02-01T05:08:52;101058.97;;;2.76;68.30
75298;BME280;63896;45.990;18.688;2023-02-01T05:11:55;101049.22;;;2.69;68.09
75298;BME280;63896;45.990;18.688;2023-02-01T05:15:16;101036.66;;;2.72;68.22
75298;BME280;63896;45.990;18.688;2023-02-01T05:18:20;101046.16;;;2.73;68.06
75298;BME280;63896;45.990;18.688;2023-02-01T05:21:22;101043.25;;;2.76;68.35
75298;BME280;63896;45.990;18.688;2023-02-01T05:24:25;101040.41;;;2.70;68.11
75298;BME280;63896;45.990;18.688;2023-02-01T05:27:30;101034.03;;;2.72;67.67
75298;BME280;63896;45.990;18.688;2023-02-01T05:30:33;101042.41;;;2.76;68.34
75298;BME280;63896;45.990;18.688;2023-02-01T05:33:37;101041.38;;;2.69;68.78
75298;BME280;63896;45.990;18.688;2023-02-01T05:36:40;101045.78;;;2.68;69.01
75298;BME280;63896;45.990;18.688;2023-02-01T05:39:43;101038.44;;;2.72;68.68
75298;BME280;63896;45.990;18.688;2023-02-01T05:42:46;101033.41;;;2.61;68.75
75298;BME280;63896;45.990;18.688;2023-02-01T05:45:51;101045.16;;;2.57;69.09
75298;BME280;63896;45.990;18.688;2023-02-01T05:48:54;101043.78;;;2.53;69.36
75298;BME280;63896;45.990;18.688;2023-02-01T05:51:57;101034.38;;;2.60;68.85
75298;BME280;63896;45.990;18.688;2023-02-01T05:55:02;101042.94;;;2.62;68.61
75298;BME280;63896;45.990;18.688;2023-02-01T05:58:05;101052.38;;;2.72;67.68
75298;BME280;63896;45.990;18.688;2023-02-01T06:01:08;101063.38;;;2.76;67.31
75298;BME280;63896;45.990;18.688;2023-02-01T06:04:11;101057.69;;;2.80;67.02
75298;BME280;63896;45.990;18.688;2023-02-01T06:07:14;101064.81;;;2.88;66.80
75298;BME280;63896;45.990;18.688;2023-02-01T06:10:17;101069.25;;;2.87;67.14
75298;BME280;63896;45.990;18.688;2023-02-01T06:13:21;101067.44;;;2.88;67.53
75298;BME280;63896;45.990;18.688;2023-02-01T06:16:24;101078.38;;;2.83;67.13
75298;BME280;63896;45.990;18.688;2023-02-01T06:19:27;101079.84;;;2.86;68.43
75298;BME280;63896;45.990;18.688;2023-02-01T06:22:29;101086.00;;;2.77;69.23
75298;BME280;63896;45.990;18.688;2023-02-01T06:25:32;101097.31;;;2.77;69.41
75298;BME280;63896;45.990;18.688;2023-02-01T06:28:35;101105.59;;;2.73;70.16
75298;BME280;63896;45.990;18.688;2023-02-01T06:31:38;101101.31;;;2.72;70.34
75298;BME280;63896;45.990;18.688;2023-02-01T06:34:41;101118.69;;;2.73;70.03
75298;BME280;63896;45.990;18.688;2023-02-01T06:37:44;101101.72;;;2.77;69.78
75298;BME280;63896;45.990;18.688;2023-02-01T06:40:55;101092.69;;;2.89;69.08
75298;BME280;63896;45.990;18.688;2023-02-01T06:43:58;101086.97;;;2.94;69.06
75298;BME280;63896;45.990;18.688;2023-02-01T06:47:01;101090.06;;;2.89;69.32
75298;BME280;63896;45.990;18.688;2023-02-01T06:50:07;101098.47;;;2.93;69.46
75298;BME280;63896;45.990;18.688;2023-02-01T06:53:10;101093.31;;;3.01;68.18
75298;BME280;63896;45.990;18.688;2023-02-01T06:56:13;101098.63;;;3.09;68.30
75298;BME280;63896;45.990;18.688;2023-02-01T06:59:15;101109.56;;;3.22;68.07
75298;BME280;63896;45.990;18.688;2023-02-01T07:02:19;101097.19;;;3.14;68.39
75298;BME280;63896;45.990;18.688;2023-02-01T07:05:22;101089.19;;;3.16;68.58
75298;BME280;63896;45.990;18.688;2023-02-01T07:08:27;101080.28;;;3.26;67.29
75298;BME280;63896;45.990;18.688;2023-02-01T07:11:30;101092.34;;;3.37;66.87
75298;BME280;63896;45.990;18.688;2023-02-01T07:14:34;101092.84;;;3.41;66.72
75298;BME280;63896;45.990;18.688;2023-02-01T07:17:37;101088.97;;;3.45;66.47
75298;BME280;63896;45.990;18.688;2023-02-01T07:20:40;101080.50;;;3.51;65.41
75298;BME280;63896;45.990;18.688;2023-02-01T07:23:43;101079.97;;;3.47;65.44
75298;BME280;63896;45.990;18.688;2023-02-01T07:26:46;101089.34;;;3.50;64.41
75298;BME280;63896;45.990;18.688;2023-02-01T07:29:50;101102.16;;;3.53;64.55
75298;BME280;63896;45.990;18.688;2023-02-01T07:32:53;101108.34;;;3.52;64.33
75298;BME280;63896;45.990;18.688;2023-02-01T07:35:56;101115.88;;;3.47;64.49
75298;BME280;63896;45.990;18.688;2023-02-01T07:39:00;101121.41;;;3.61;63.87
75298;BME280;63896;45.990;18.688;2023-02-01T07:42:02;101122.38;;;3.60;64.28
75298;BME280;63896;45.990;18.688;2023-02-01T07:45:06;101133.03;;;3.59;64.66
75298;BME280;63896;45.990;18.688;2023-02-01T07:48:24;101117.66;;;3.64;64.20
75298;BME280;63896;45.990;18.688;2023-02-01T07:51:27;101099.81;;;3.67;64.26
75298;BME280;63896;45.990;18.688;2023-02-01T07:54:29;101096.19;;;3.86;63.93
75298;BME280;63896;45.990;18.688;2023-02-01T07:57:32;101110.75;;;4.06;64.06
75298;BME280;63896;45.990;18.688;2023-02-01T08:00:37;101122.56;;;4.28;62.74
75298;BME280;63896;45.990;18.688;2023-02-01T08:04:02;101133.41;;;4.33;63.37
75298;BME280;63896;45.990;18.688;2023-02-01T08:07:05;101129.53;;;4.45;62.68
75298;BME280;63896;45.990;18.688;2023-02-01T08:10:08;101131.03;;;4.48;62.31
75298;BME280;63896;45.990;18.688;2023-02-01T08:13:13;101128.47;;;4.64;60.95
75298;BME280;63896;45.990;18.688;2023-02-01T08:16:18;101128.84;;;4.69;60.96
75298;BME280;63896;45.990;18.688;2023-02-01T08:19:21;101124.19;;;4.55;60.76
75298;BME280;63896;45.990;18.688;2023-02-01T08:22:24;101122.75;;;4.68;60.47
75298;BME280;63896;45.990;18.688;2023-02-01T08:25:27;101118.78;;;4.64;60.16
75298;BME280;63896;45.990;18.688;2023-02-01T08:28:31;101115.53;;;4.70;60.56
75298;BME280;63896;45.990;18.688;2023-02-01T08:31:34;101109.31;;;4.79;59.74
75298;BME280;63896;45.990;18.688;2023-02-01T08:34:37;101107.03;;;4.85;59.28
75298;BME280;63896;45.990;18.688;2023-02-01T08:37:40;101103.44;;;4.86;59.14
75298;BME280;63896;45.990;18.688;2023-02-01T08:40:43;101102.78;;;4.92;59.30
75298;BME280;63896;45.990;18.688;2023-02-01T08:43:46;101094.94;;;5.00;58.73
75298;BME280;63896;45.990;18.688;2023-02-01T08:46:50;101098.22;;;5.02;59.01
75298;BME280;63896;45.990;18.688;2023-02-01T08:49:53;101103.34;;;5.11;58.82
75298;BME280;63896;45.990;18.688;2023-02-01T08:52:56;101103.00;;;5.14;59.09
75298;BME280;63896;45.990;18.688;2023-02-01T08:55:59;101108.47;;;5.37;58.35
75298;BME280;63896;45.990;18.688;2023-02-01T08:59:03;101105.19;;;5.27;57.59
75298;BME280;63896;45.990;18.688;2023-02-01T09:02:11;101111.78;;;5.39;57.01
75298;BME280;63896;45.990;18.688;2023-02-01T09:05:17;101114.22;;;5.41;57.16
75298;BME280;63896;45.990;18.688;2023-02-01T09:08:21;101107.00;;;5.35;56.70
75298;BME280;63896;45.990;18.688;2023-02-01T09:11:24;101097.28;;;5.35;57.44
75298;BME280;63896;45.990;18.688;2023-02-01T09:14:28;101110.47;;;5.43;57.39
75298;BME280;63896;45.990;18.688;2023-02-01T09:17:31;101112.09;;;5.60;57.56
75298;BME280;63896;45.990;18.688;2023-02-01T09:20:36;101119.84;;;5.62;58.44
75298;BME280;63896;45.990;18.688;2023-02-01T09:23:39;101115.75;;;5.67;58.43
75298;BME280;63896;45.990;18.688;2023-02-01T09:26:42;101118.19;;;5.69;58.95
75298;BME280;63896;45.990;18.688;2023-02-01T09:29:45;101113.63;;;5.79;58.11
75298;BME280;63896;45.990;18.688;2023-02-01T09:32:52;101112.94;;;5.85;57.63
75298;BME280;63896;45.990;18.688;2023-02-01T09:35:59;101117.56;;;5.91;57.95
75298;BME280;63896;45.990;18.688;2023-02-01T09:39:03;101115.59;;;5.93;57.39
75298;BME280;63896;45.990;18.688;2023-02-01T09:42:30;101113.13;;;6.00;57.06
75298;BME280;63896;45.990;18.688;2023-02-01T09:45:53;101112.91;;;6.26;57.05
75298;BME280;63896;45.990;18.688;2023-02-01T09:49:24;101111.78;;;6.20;57.83
75298;BME280;63896;45.990;18.688;2023-02-01T09:52:43;101106.16;;;6.23;57.93
75298;BME280;63896;45.990;18.688;2023-02-01T09:55:50;101096.75;;;6.37;57.36
75298;BME280;63896;45.990;18.688;2023-02-01T10:02:30;101079.53;;;6.88;55.68
75298;BME280;63896;45.990;18.688;2023-02-01T10:23:01;101040.53;;;7.51;53.18
75298;BME280;63896;45.990;18.688;2023-02-01T10:26:32;101049.13;;;8.49;51.07
75298;BME280;63896;45.990;18.688;2023-02-01T10:29:39;101049.31;;;11.91;43.13
75298;BME280;63896;45.990;18.688;2023-02-01T10:32:42;101040.69;;;14.83;37.49
75298;BME280;63896;45.990;18.688;2023-02-01T10:35:46;101032.91;;;17.19;32.27
75298;BME280;63896;45.990;18.688;2023-02-01T10:38:53;101042.91;;;13.95;37.67
75298;BME280;63896;45.990;18.688;2023-02-01T10:41:56;101030.19;;;13.72;38.91
75298;BME280;63896;45.990;18.688;2023-02-01T10:45:02;101015.63;;;14.29;36.32
75298;BME280;63896;45.990;18.688;2023-02-01T10:48:10;101008.75;;;13.61;37.31
75298;BME280;63896;45.990;18.688;2023-02-01T10:51:21;101007.22;;;12.84;39.53
75298;BME280;63896;45.990;18.688;2023-02-01T10:54:37;101008.00;;;11.23;43.60
75298;BME280;63896;45.990;18.688;2023-02-01T10:57:56;100995.34;;;10.45;45.32
75298;BME280;63896;45.990;18.688;2023-02-01T11:01:17;101000.41;;;9.71;47.54
75298;BME280;63896;45.990;18.688;2023-02-01T11:04:24;100997.72;;;9.37;48.00
75298;BME280;63896;45.990;18.688;2023-02-01T11:07:29;100982.72;;;10.13;46.69
75298;BME280;63896;45.990;18.688;2023-02-01T11:10:40;100973.78;;;10.68;45.51
75298;BME280;63896;45.990;18.688;2023-02-01T11:13:43;100963.63;;;11.70;43.55
75298;BME280;63896;45.990;18.688;2023-02-01T11:16:49;100966.72;;;13.38;39.50
75298;BME280;63896;45.990;18.688;2023-02-01T11:20:19;100958.28;;;12.78;39.40
75298;BME280;63896;45.990;18.688;2023-02-01T11:23:24;100942.00;;;14.58;36.18
75298;BME280;63896;45.990;18.688;2023-02-01T11:26:29;100943.53;;;14.00;37.85
75298;BME280;63896;45.990;18.688;2023-02-01T11:29:38;100934.91;;;13.61;38.12
75298;BME280;63896;45.990;18.688;2023-02-01T11:32:42;100932.44;;;13.42;38.35
75298;BME280;63896;45.990;18.688;2023-02-01T11:35:47;100924.06;;;12.06;40.00
75298;BME280;63896;45.990;18.688;2023-02-01T11:39:07;100918.63;;;12.32;40.66
75298;BME280;63896;45.990;18.688;2023-02-01T11:42:17;100913.72;;;12.67;40.16
75298;BME280;63896;45.990;18.688;2023-02-01T11:45:33;100912.72;;;11.60;42.49
75298;BME280;63896;45.990;18.688;2023-02-01T11:48:37;100910.47;;;11.63;42.22
75298;BME280;63896;45.990;18.688;2023-02-01T11:58:48;100892.88;;;9.83;47.18
75298;BME280;63896;45.990;18.688;2023-02-01T12:02:00;100885.97;;;9.54;46.00
75298;BME280;63896;45.990;18.688;2023-02-01T12:12:25;100868.44;;;8.91;48.95
75298;BME280;63896;45.990;18.688;2023-02-01T12:15:43;100864.56;;;8.66;51.63
75298;BME280;63896;45.990;18.688;2023-02-01T12:22:19;100864.31;;;8.40;55.00
75298;BME280;63896;45.990;18.688;2023-02-01T12:39:24;100850.41;;;8.17;58.06
75298;BME280;63896;45.990;18.688;2023-02-01T12:42:36;100851.28;;;8.24;58.29
75298;BME280;63896;45.990;18.688;2023-02-01T12:45:54;100834.97;;;8.35;56.99
75298;BME280;63896;45.990;18.688;2023-02-01T12:52:26;100838.75;;;8.11;58.24
75298;BME280;63896;45.990;18.688;2023-02-01T12:55:36;100831.31;;;8.36;57.45
75298;BME280;63896;45.990;18.688;2023-02-01T12:58:48;100828.56;;;8.44;56.78
75298;BME280;63896;45.990;18.688;2023-02-01T13:05:12;100823.78;;;8.33;52.35
75298;BME280;63896;45.990;18.688;2023-02-01T13:11:45;100821.28;;;8.10;52.32
75298;BME280;63896;45.990;18.688;2023-02-01T13:14:55;100831.13;;;8.01;53.29
75298;BME280;63896;45.990;18.688;2023-02-01T13:18:02;100810.94;;;7.94;54.51
75298;BME280;63896;45.990;18.688;2023-02-01T13:21:17;100809.66;;;7.90;55.21
75298;BME280;63896;45.990;18.688;2023-02-01T13:27:29;100803.22;;;7.78;55.82
75298;BME280;63896;45.990;18.688;2023-02-01T13:44:15;100813.75;;;7.56;59.31
75298;BME280;63896;45.990;18.688;2023-02-01T13:47:42;100820.94;;;7.48;58.98
75298;BME280;63896;45.990;18.688;2023-02-01T13:50:51;100821.56;;;7.50;58.87
75298;BME280;63896;45.990;18.688;2023-02-01T13:53:54;100817.81;;;7.59;58.55
75298;BME280;63896;45.990;18.688;2023-02-01T13:56:59;100818.56;;;7.53;58.65
75298;BME280;63896;45.990;18.688;2023-02-01T14:00:22;100810.47;;;7.54;58.70
75298;BME280;63896;45.990;18.688;2023-02-01T14:03:46;100800.44;;;7.64;58.01
75298;BME280;63896;45.990;18.688;2023-02-01T14:06:52;100794.69;;;7.61;58.10
75298;BME280;63896;45.990;18.688;2023-02-01T14:09:55;100796.59;;;7.67;58.43
75298;BME280;63896;45.990;18.688;2023-02-01T14:13:11;100796.88;;;7.57;59.34
75298;BME280;63896;45.990;18.688;2023-02-01T14:16:16;100790.78;;;7.57;58.64
75298;BME280;63896;45.990;18.688;2023-02-01T14:19:27;100780.53;;;7.47;58.79
75298;BME280;63896;45.990;18.688;2023-02-01T14:22:33;100779.72;;;7.32;59.32
75298;BME280;63896;45.990;18.688;2023-02-01T14:25:37;100768.25;;;7.25;60.15
75298;BME280;63896;45.990;18.688;2023-02-01T14:28:53;100754.13;;;7.47;61.90
75298;BME280;63896;45.990;18.688;2023-02-01T14:35:20;100747.69;;;7.21;63.19
75298;BME280;63896;45.990;18.688;2023-02-01T14:38:24;100735.34;;;7.06;63.22
75298;BME280;63896;45.990;18.688;2023-02-01T14:41:31;100741.69;;;6.97;63.39
75298;BME280;63896;45.990;18.688;2023-02-01T14:44:36;100727.56;;;7.19;62.28
75298;BME280;63896;45.990;18.688;2023-02-01T14:47:40;100736.84;;;7.15;61.33
75298;BME280;63896;45.990;18.688;2023-02-01T14:50:46;100736.41;;;7.12;60.67
75298;BME280;63896;45.990;18.688;2023-02-01T14:53:50;100731.41;;;6.88;61.28
75298;BME280;63896;45.990;18.688;2023-02-01T14:56:54;100747.22;;;6.73;61.91
75298;BME280;63896;45.990;18.688;2023-02-01T15:00:19;100758.66;;;6.51;62.90
75298;BME280;63896;45.990;18.688;2023-02-01T15:06:47;100824.25;;;6.46;65.44
75298;BME280;63896;45.990;18.688;2023-02-01T15:09:55;100883.72;;;6.48;64.86
75298;BME280;63896;45.990;18.688;2023-02-01T15:13:00;100935.41;;;6.18;63.91
75298;BME280;63896;45.990;18.688;2023-02-01T15:16:11;100941.50;;;6.19;63.19
75298;BME280;63896;45.990;18.688;2023-02-01T15:19:14;100945.09;;;6.26;60.97
75298;BME280;63896;45.990;18.688;2023-02-01T15:22:18;100949.50;;;6.34;61.74
75298;BME280;63896;45.990;18.688;2023-02-01T15:25:25;100948.69;;;6.33;60.81
75298;BME280;63896;45.990;18.688;2023-02-01T15:28:28;100961.34;;;6.38;59.46
75298;BME280;63896;45.990;18.688;2023-02-01T15:31:46;100969.03;;;6.47;58.68
75298;BME280;63896;45.990;18.688;2023-02-01T15:34:49;100969.91;;;6.40;59.52
75298;BME280;63896;45.990;18.688;2023-02-01T15:37:52;100968.91;;;6.41;59.06
75298;BME280;63896;45.990;18.688;2023-02-01T15:41:04;100972.25;;;6.27;59.16
75298;BME280;63896;45.990;18.688;2023-02-01T15:44:21;100984.00;;;6.16;59.81
75298;BME280;63896;45.990;18.688;2023-02-01T15:47:28;100999.34;;;6.04;60.88
75298;BME280;63896;45.990;18.688;2023-02-01T15:50:33;101008.25;;;6.03;61.82
75298;BME280;63896;45.990;18.688;2023-02-01T15:53:36;101009.59;;;5.91;62.72
75298;BME280;63896;45.990;18.688;2023-02-01T15:56:41;101013.56;;;5.87;63.17
75298;BME280;63896;45.990;18.688;2023-02-01T15:59:44;101013.88;;;5.84;65.13
75298;BME280;63896;45.990;18.688;2023-02-01T16:02:58;101021.47;;;5.79;65.55
75298;BME280;63896;45.990;18.688;2023-02-01T16:06:07;101025.09;;;5.62;67.34
75298;BME280;63896;45.990;18.688;2023-02-01T16:09:13;101007.34;;;5.56;67.70
75298;BME280;63896;45.990;18.688;2023-02-01T16:15:46;101018.19;;;5.45;68.86
75298;BME280;63896;45.990;18.688;2023-02-01T16:18:49;101026.25;;;5.35;69.27
75298;BME280;63896;45.990;18.688;2023-02-01T16:21:52;101036.28;;;5.40;70.29
75298;BME280;63896;45.990;18.688;2023-02-01T16:24:55;101025.09;;;5.29;70.74
75298;BME280;63896;45.990;18.688;2023-02-01T16:27:58;101016.06;;;5.32;70.90
75298;BME280;63896;45.990;18.688;2023-02-01T16:31:01;101024.28;;;5.29;71.14
75298;BME280;63896;45.990;18.688;2023-02-01T16:34:05;101018.53;;;5.34;71.19
75298;BME280;63896;45.990;18.688;2023-02-01T16:37:12;100988.94;;;5.32;70.87
75298;BME280;63896;45.990;18.688;2023-02-01T16:40:17;101004.56;;;5.25;72.14
75298;BME280;63896;45.990;18.688;2023-02-01T16:43:22;101011.28;;;5.27;71.91
75298;BME280;63896;45.990;18.688;2023-02-01T16:46:28;100998.16;;;5.27;72.06
75298;BME280;63896;45.990;18.688;2023-02-01T16:49:34;100972.66;;;5.20;72.78
75298;BME280;63896;45.990;18.688;2023-02-01T16:52:37;100968.03;;;5.22;73.07
75298;BME280;63896;45.990;18.688;2023-02-01T16:55:42;100953.09;;;5.31;73.21
75298;BME280;63896;45.990;18.688;2023-02-01T16:58:46;100979.06;;;5.01;75.58
75298;BME280;63896;45.990;18.688;2023-02-01T17:01:49;100981.84;;;4.84;75.62
75298;BME280;63896;45.990;18.688;2023-02-01T17:04:52;100991.19;;;4.70;75.32
75298;BME280;63896;45.990;18.688;2023-02-01T17:08:00;100982.59;;;4.60;75.58
75298;BME280;63896;45.990;18.688;2023-02-01T17:11:06;100992.28;;;4.51;76.30
75298;BME280;63896;45.990;18.688;2023-02-01T17:14:15;100997.59;;;4.25;77.67
75298;BME280;63896;45.990;18.688;2023-02-01T17:17:21;100999.53;;;4.15;77.08
75298;BME280;63896;45.990;18.688;2023-02-01T17:20:41;101001.22;;;3.91;78.65
75298;BME280;63896;45.990;18.688;2023-02-01T17:23:44;101009.75;;;3.67;79.77
75298;BME280;63896;45.990;18.688;2023-02-01T17:26:48;101003.53;;;3.68;80.52
75298;BME280;63896;45.990;18.688;2023-02-01T17:29:53;101008.69;;;3.52;80.59
75298;BME280;63896;45.990;18.688;2023-02-01T17:33:00;101010.97;;;3.29;81.20
75298;BME280;63896;45.990;18.688;2023-02-01T17:36:18;101004.78;;;3.12;82.37
75298;BME280;63896;45.990;18.688;2023-02-01T17:39:21;100997.38;;;3.08;82.65
75298;BME280;63896;45.990;18.688;2023-02-01T17:42:43;101013.16;;;2.98;83.50
75298;BME280;63896;45.990;18.688;2023-02-01T17:45:58;101008.09;;;2.97;83.62
75298;BME280;63896;45.990;18.688;2023-02-01T17:49:03;101010.97;;;2.94;84.05
75298;BME280;63896;45.990;18.688;2023-02-01T17:52:14;100998.47;;;2.87;83.98
75298;BME280;63896;45.990;18.688;2023-02-01T17:55:20;100989.34;;;2.92;84.79
75298;BME280;63896;45.990;18.688;2023-02-01T17:58:25;100982.22;;;3.02;83.88
75298;BME280;63896;45.990;18.688;2023-02-01T18:01:28;100976.91;;;2.94;84.60
75298;BME280;63896;45.990;18.688;2023-02-01T18:04:31;100981.03;;;2.96;84.47
75298;BME280;63896;45.990;18.688;2023-02-01T18:07:37;100980.34;;;2.94;84.79
75298;BME280;63896;45.990;18.688;2023-02-01T18:10:40;100976.69;;;2.87;84.46
75298;BME280;63896;45.990;18.688;2023-02-01T18:13:45;100975.66;;;2.80;84.56
75298;BME280;63896;45.990;18.688;2023-02-01T18:16:48;100988.38;;;2.93;84.44